sensor_id;sensor_type;location;lat;lon;timestamp;pressure;altitude;pressure_sealevel;temperature;humidity
78198;BME280;67472;51.554;7.812;2023-09-08T00:01:24;100993.78;;;17.29;100.00
78198;BME280;67472;51.554;7.812;2023-09-08T00:04:10;101003.22;;;17.08;100.00
78198;BME280;67472;51.554;7.812;2023-09-08T00:06:58;101003.81;;;16.93;100.00
78198;BME280;67472;51.554;7.812;2023-09-08T00:09:44;101012.25;;;16.81;100.00
78198;BME280;67472;51.554;7.812;2023-09-08T00:12:30;101010.75;;;16.78;100.00
78198;BME280;67472;51.554;7.812;2023-09-08T00:15:18;101006.50;;;17.02;100.00
78198;BME280;67472;51.554;7.812;2023-09-08T00:18:09;101011.97;;;17.34;100.00
78198;BME280;67472;51.554;7.812;2023-09-08T00:20:56;101009.66;;;17.39;100.00
78198;BME280;67472;51.554;7.812;2023-09-08T00:23:42;101003.97;;;17.42;100.00
78198;BME280;67472;51.554;7.812;2023-09-08T00:26:30;101005.66;;;17.43;100.00
78198;BME280;67472;51.554;7.812;2023-09-08T00:29:16;101006.84;;;17.48;100.00
78198;BME280;67472;51.554;7.812;2023-09-08T00:32:04;101013.59;;;17.69;100.00
78198;BME280;67472;51.554;7.812;2023-09-08T00:34:53;101019.97;;;17.92;100.00
78198;BME280;67472;51.554;7.812;2023-09-08T00:37:39;101006.63;;;17.92;100.00
78198;BME280;67472;51.554;7.812;2023-09-08T00:40:26;101012.78;;;17.92;100.00
78198;BME280;67472;51.554;7.812;2023-09-08T00:43:15;101019.31;;;17.98;100.00
78198;BME280;67472;51.554;7.812;2023-09-08T00:46:04;101007.44;;;18.00;100.00
78198;BME280;67472;51.554;7.812;2023-09-08T00:48:51;101004.78;;;18.08;100.00
78198;BME280;67472;51.554;7.812;2023-09-08T00:51:39;100999.09;;;18.03;100.00
78198;BME280;67472;51.554;7.812;2023-09-08T00:54:26;101004.09;;;18.06;100.00
78198;BME280;67472;51.554;7.812;2023-09-08T00:57:13;101009.63;;;18.05;100.00
78198;BME280;67472;51.554;7.812;2023-09-08T01:00:01;101004.44;;;18.03;100.00
78198;BME280;67472;51.554;7.812;2023-09-08T01:02:50;101003.75;;;17.85;100.00
78198;BME280;67472;51.554;7.812;2023-09-08T01:05:37;100999.59;;;17.75;100.00
78198;BME280;67472;51.554;7.812;2023-09-08T01:08:27;100990.16;;;17.46;100.00
78198;BME280;67472;51.554;7.812;2023-09-08T01:11:17;100995.22;;;17.16;100.00
78198;BME280;67472;51.554;7.812;2023-09-08T01:14:04;101001.47;;;17.32;100.00
78198;BME280;67472;51.554;7.812;2023-09-08T01:16:52;101004.25;;;17.15;100.00
78198;BME280;67472;51.554;7.812;2023-09-08T01:19:38;101019.44;;;17.22;100.00
78198;BME280;67472;51.554;7.812;2023-09-08T01:22:39;101023.31;;;17.36;100.00
78198;BME280;67472;51.554;7.812;2023-09-08T01:25:35;101027.81;;;17.27;100.00
78198;BME280;67472;51.554;7.812;2023-09-08T01:28:24;101023.88;;;16.98;100.00
78198;BME280;67472;51.554;7.812;2023-09-08T01:31:12;101008.03;;;16.70;100.00
78198;BME280;67472;51.554;7.812;2023-09-08T01:34:00;101020.13;;;16.57;100.00
78198;BME280;67472;51.554;7.812;2023-09-08T01:36:49;101021.13;;;16.56;100.00
78198;BME280;67472;51.554;7.812;2023-09-08T01:39:36;101024.94;;;16.35;100.00
78198;BME280;67472;51.554;7.812;2023-09-08T01:42:24;101034.63;;;16.36;100.00
78198;BME280;67472;51.554;7.812;2023-09-08T01:45:10;101036.69;;;16.25;100.00
78198;BME280;67472;51.554;7.812;2023-09-08T01:47:56;101047.47;;;16.41;100.00
78198;BME280;67472;51.554;7.812;2023-09-08T01:50:44;101045.97;;;16.38;100.00
78198;BME280;67472;51.554;7.812;2023-09-08T01:53:32;101059.91;;;16.32;100.00
78198;BME280;67472;51.554;7.812;2023-09-08T01:56:21;101052.59;;;16.17;100.00
78198;BME280;67472;51.554;7.812;2023-09-08T01:59:10;101052.72;;;16.07;100.00
78198;BME280;67472;51.554;7.812;2023-09-08T02:01:59;101060.69;;;16.07;100.00
78198;BME280;67472;51.554;7.812;2023-09-08T02:04:47;101048.34;;;16.24;100.00
78198;BME280;67472;51.554;7.812;2023-09-08T02:07:35;101065.84;;;16.44;100.00
78198;BME280;67472;51.554;7.812;2023-09-08T02:10:22;101059.13;;;16.40;100.00
78198;BME280;67472;51.554;7.812;2023-09-08T02:13:10;101054.84;;;16.47;100.00
78198;BME280;67472;51.554;7.812;2023-09-08T02:15:59;101059.66;;;16.44;100.00
78198;BME280;67472;51.554;7.812;2023-09-08T02:18:46;101057.78;;;16.36;100.00
78198;BME280;67472;51.554;7.812;2023-09-08T02:21:32;101053.31;;;16.19;100.00
78198;BME280;67472;51.554;7.812;2023-09-08T02:24:21;101052.59;;;16.17;100.00
78198;BME280;67472;51.554;7.812;2023-09-08T02:27:08;101060.16;;;16.04;100.00
78198;BME280;67472;51.554;7.812;2023-09-08T02:29:55;101062.81;;;16.04;100.00
78198;BME280;67472;51.554;7.812;2023-09-08T02:32:43;101049.88;;;16.09;100.00
78198;BME280;67472;51.554;7.812;2023-09-08T02:35:37;101063.97;;;16.01;100.00
78198;BME280;67472;51.554;7.812;2023-09-08T02:38:24;101053.06;;;15.95;100.00
78198;BME280;67472;51.554;7.812;2023-09-08T02:41:11;101055.13;;;15.83;100.00
78198;BME280;67472;51.554;7.812;2023-09-08T02:44:00;101053.91;;;15.77;100.00
78198;BME280;67472;51.554;7.812;2023-09-08T02:46:47;101061.06;;;15.77;100.00
78198;BME280;67472;51.554;7.812;2023-09-08T02:49:36;101071.25;;;15.99;100.00
78198;BME280;67472;51.554;7.812;2023-09-08T02:52:23;101075.06;;;15.79;100.00
78198;BME280;67472;51.554;7.812;2023-09-08T02:55:10;101063.66;;;15.87;100.00
78198;BME280;67472;51.554;7.812;2023-09-08T02:57:57;101073.47;;;15.86;100.00
78198;BME280;67472;51.554;7.812;2023-09-08T03:00:44;101083.16;;;16.05;100.00
78198;BME280;67472;51.554;7.812;2023-09-08T03:03:30;101077.72;;;15.97;100.00
78198;BME280;67472;51.554;7.812;2023-09-08T03:06:22;101075.53;;;16.10;100.00
78198;BME280;67472;51.554;7.812;2023-09-08T03:09:09;101076.22;;;16.12;100.00
78198;BME280;67472;51.554;7.812;2023-09-08T03:11:55;101064.03;;;15.92;100.00
78198;BME280;67472;51.554;7.812;2023-09-08T03:14:42;101073.56;;;15.94;100.00
78198;BME280;67472;51.554;7.812;2023-09-08T03:17:29;101075.66;;;15.91;100.00
78198;BME280;67472;51.554;7.812;2023-09-08T03:20:16;101071.13;;;15.83;100.00
78198;BME280;67472;51.554;7.812;2023-09-08T03:23:05;101081.41;;;15.96;100.00
78198;BME280;67472;51.554;7.812;2023-09-08T03:25:53;101071.78;;;15.85;100.00
78198;BME280;67472;51.554;7.812;2023-09-08T03:28:42;101068.91;;;15.78;100.00
78198;BME280;67472;51.554;7.812;2023-09-08T03:31:29;101069.06;;;15.95;100.00
78198;BME280;67472;51.554;7.812;2023-09-08T03:34:17;101064.28;;;15.98;100.00
78198;BME280;67472;51.554;7.812;2023-09-08T03:37:05;101058.78;;;16.00;100.00
78198;BME280;67472;51.554;7.812;2023-09-08T03:39:55;101063.81;;;16.03;100.00
78198;BME280;67472;51.554;7.812;2023-09-08T03:42:44;101061.13;;;15.85;100.00
78198;BME280;67472;51.554;7.812;2023-09-08T03:45:30;101061.97;;;15.86;100.00
78198;BME280;67472;51.554;7.812;2023-09-08T03:48:17;101063.50;;;15.88;100.00
78198;BME280;67472;51.554;7.812;2023-09-08T03:51:04;101067.53;;;15.92;100.00
78198;BME280;67472;51.554;7.812;2023-09-08T03:53:50;101064.22;;;15.90;100.00
78198;BME280;67472;51.554;7.812;2023-09-08T03:56:38;101061.91;;;15.95;100.00
78198;BME280;67472;51.554;7.812;2023-09-08T03:59:25;101068.31;;;15.85;100.00
78198;BME280;67472;51.554;7.812;2023-09-08T04:02:12;101071.19;;;15.91;100.00
78198;BME280;67472;51.554;7.812;2023-09-08T04:05:01;101068.75;;;15.80;100.00
78198;BME280;67472;51.554;7.812;2023-09-08T04:07:49;101074.75;;;15.82;100.00
78198;BME280;67472;51.554;7.812;2023-09-08T04:10:36;101073.41;;;15.96;100.00
78198;BME280;67472;51.554;7.812;2023-09-08T04:13:26;101067.47;;;16.02;100.00
78198;BME280;67472;51.554;7.812;2023-09-08T04:16:12;101057.47;;;15.68;100.00
78198;BME280;67472;51.554;7.812;2023-09-08T04:18:59;101060.13;;;15.68;100.00
78198;BME280;67472;51.554;7.812;2023-09-08T04:21:46;101071.59;;;15.51;100.00
78198;BME280;67472;51.554;7.812;2023-09-08T04:24:35;101074.44;;;15.50;100.00
78198;BME280;67472;51.554;7.812;2023-09-08T04:27:23;101084.91;;;15.51;100.00
78198;BME280;67472;51.554;7.812;2023-09-08T04:30:13;101078.19;;;15.47;100.00
78198;BME280;67472;51.554;7.812;2023-09-08T04:33:00;101085.50;;;15.36;100.00
78198;BME280;67472;51.554;7.812;2023-09-08T04:35:47;101092.81;;;15.34;100.00
78198;BME280;67472;51.554;7.812;2023-09-08T04:38:34;101097.28;;;15.33;100.00
78198;BME280;67472;51.554;7.812;2023-09-08T04:41:21;101101.25;;;15.29;100.00
78198;BME280;67472;51.554;7.812;2023-09-08T04:44:08;101104.63;;;15.21;100.00
78198;BME280;67472;51.554;7.812;2023-09-08T04:46:56;101112.31;;;15.24;100.00
78198;BME280;67472;51.554;7.812;2023-09-08T04:49:44;101116.38;;;15.28;100.00
78198;BME280;67472;51.554;7.812;2023-09-08T04:52:31;101113.31;;;15.23;100.00
78198;BME280;67472;51.554;7.812;2023-09-08T04:55:18;101115.16;;;15.23;100.00
78198;BME280;67472;51.554;7.812;2023-09-08T04:58:06;101121.34;;;15.14;100.00
78198;BME280;67472;51.554;7.812;2023-09-08T05:00:53;101125.38;;;15.18;100.00
78198;BME280;67472;51.554;7.812;2023-09-08T05:03:41;101137.38;;;15.32;100.00
78198;BME280;67472;51.554;7.812;2023-09-08T05:06:27;101130.81;;;15.26;100.00
78198;BME280;67472;51.554;7.812;2023-09-08T05:09:14;101129.53;;;15.30;100.00
78198;BME280;67472;51.554;7.812;2023-09-08T05:12:02;101124.63;;;15.35;100.00
78198;BME280;67472;51.554;7.812;2023-09-08T05:14:51;101128.22;;;15.44;100.00
78198;BME280;67472;51.554;7.812;2023-09-08T05:17:43;101127.69;;;15.50;100.00
78198;BME280;67472;51.554;7.812;2023-09-08T05:20:32;101117.53;;;15.53;100.00
78198;BME280;67472;51.554;7.812;2023-09-08T05:23:19;101115.72;;;15.54;100.00
78198;BME280;67472;51.554;7.812;2023-09-08T05:26:08;101108.25;;;15.67;100.00
78198;BME280;67472;51.554;7.812;2023-09-08T05:28:59;101110.59;;;15.70;100.00
78198;BME280;67472;51.554;7.812;2023-09-08T05:31:46;101115.88;;;15.52;100.00
78198;BME280;67472;51.554;7.812;2023-09-08T05:34:34;101105.38;;;15.51;100.00
78198;BME280;67472;51.554;7.812;2023-09-08T05:37:25;101106.09;;;15.70;100.00
78198;BME280;67472;51.554;7.812;2023-09-08T05:40:21;101108.56;;;15.81;100.00
78198;BME280;67472;51.554;7.812;2023-09-08T05:43:20;101095.34;;;15.90;100.00
78198;BME280;67472;51.554;7.812;2023-09-08T05:46:08;101090.56;;;15.93;100.00
78198;BME280;67472;51.554;7.812;2023-09-08T05:48:59;101083.59;;;16.00;100.00
78198;BME280;67472;51.554;7.812;2023-09-08T05:51:46;101086.75;;;16.13;100.00
78198;BME280;67472;51.554;7.812;2023-09-08T05:54:36;101083.53;;;16.45;100.00
78198;BME280;67472;51.554;7.812;2023-09-08T05:57:24;101074.75;;;16.35;100.00
78198;BME280;67472;51.554;7.812;2023-09-08T06:00:20;101078.09;;;16.37;100.00
78198;BME280;67472;51.554;7.812;2023-09-08T06:03:10;101086.31;;;16.44;100.00
78198;BME280;67472;51.554;7.812;2023-09-08T06:05:59;101085.50;;;16.61;100.00
78198;BME280;67472;51.554;7.812;2023-09-08T06:08:47;101099.53;;;16.88;100.00
78198;BME280;67472;51.554;7.812;2023-09-08T06:11:35;101096.09;;;17.04;100.00
78198;BME280;67472;51.554;7.812;2023-09-08T06:14:29;101096.75;;;17.32;100.00
78198;BME280;67472;51.554;7.812;2023-09-08T06:17:18;101102.34;;;17.46;100.00
78198;BME280;67472;51.554;7.812;2023-09-08T06:20:08;101093.59;;;17.70;100.00
78198;BME280;67472;51.554;7.812;2023-09-08T06:22:55;101092.66;;;17.95;100.00
78198;BME280;67472;51.554;7.812;2023-09-08T06:25:42;101075.50;;;18.22;100.00
78198;BME280;67472;51.554;7.812;2023-09-08T06:28:33;101067.78;;;18.76;100.00
78198;BME280;67472;51.554;7.812;2023-09-08T06:31:21;101026.59;;;19.32;100.00
78198;BME280;67472;51.554;7.812;2023-09-08T06:34:11;100990.69;;;19.94;100.00
78198;BME280;67472;51.554;7.812;2023-09-08T06:37:00;100958.66;;;20.53;100.00
78198;BME280;67472;51.554;7.812;2023-09-08T06:39:47;100941.53;;;20.83;100.00
78198;BME280;67472;51.554;7.812;2023-09-08T06:42:34;100928.09;;;21.12;100.00
78198;BME280;67472;51.554;7.812;2023-09-08T06:45:39;100919.47;;;21.38;100.00
78198;BME280;67472;51.554;7.812;2023-09-08T06:48:26;100915.75;;;21.60;100.00
78198;BME280;67472;51.554;7.812;2023-09-08T06:51:13;100915.25;;;21.71;100.00
78198;BME280;67472;51.554;7.812;2023-09-08T06:54:09;100910.50;;;21.94;100.00
78198;BME280;67472;51.554;7.812;2023-09-08T06:56:59;100910.47;;;22.16;100.00
78198;BME280;67472;51.554;7.812;2023-09-08T06:59:45;100909.38;;;22.38;100.00
78198;BME280;67472;51.554;7.812;2023-09-08T07:02:33;100886.13;;;22.65;100.00
78198;BME280;67472;51.554;7.812;2023-09-08T07:05:20;100888.00;;;22.64;100.00
78198;BME280;67472;51.554;7.812;2023-09-08T07:08:06;100890.59;;;22.85;100.00
78198;BME280;67472;51.554;7.812;2023-09-08T07:10:53;100881.22;;;22.81;100.00
78198;BME280;67472;51.554;7.812;2023-09-08T07:13:41;100881.06;;;22.96;100.00
78198;BME280;67472;51.554;7.812;2023-09-08T07:16:29;100878.34;;;22.83;100.00
78198;BME280;67472;51.554;7.812;2023-09-08T07:19:18;100879.63;;;22.87;100.00
78198;BME280;67472;51.554;7.812;2023-09-08T07:22:05;100879.69;;;23.20;100.00
78198;BME280;67472;51.554;7.812;2023-09-08T07:24:51;100876.63;;;23.29;100.00
78198;BME280;67472;51.554;7.812;2023-09-08T07:27:38;100869.63;;;23.41;100.00
78198;BME280;67472;51.554;7.812;2023-09-08T07:30:25;100864.03;;;23.56;100.00
78198;BME280;67472;51.554;7.812;2023-09-08T07:33:14;100870.28;;;23.56;100.00
78198;BME280;67472;51.554;7.812;2023-09-08T07:36:07;100874.59;;;23.77;100.00
78198;BME280;67472;51.554;7.812;2023-09-08T07:38:56;100865.47;;;23.78;100.00
78198;BME280;67472;51.554;7.812;2023-09-08T07:41:45;100860.69;;;23.93;100.00
78198;BME280;67472;51.554;7.812;2023-09-08T07:44:32;100866.31;;;23.79;100.00
78198;BME280;67472;51.554;7.812;2023-09-08T07:47:19;100874.00;;;23.82;100.00
78198;BME280;67472;51.554;7.812;2023-09-08T07:50:20;100870.66;;;23.99;100.00
78198;BME280;67472;51.554;7.812;2023-09-08T07:53:09;100865.25;;;23.99;100.00
78198;BME280;67472;51.554;7.812;2023-09-08T07:55:55;100876.66;;;24.21;100.00
78198;BME280;67472;51.554;7.812;2023-09-08T07:58:43;100865.97;;;24.59;100.00
78198;BME280;67472;51.554;7.812;2023-09-08T08:01:30;100867.03;;;24.51;100.00
78198;BME280;67472;51.554;7.812;2023-09-08T08:04:17;100872.63;;;24.56;100.00
78198;BME280;67472;51.554;7.812;2023-09-08T08:07:03;100872.84;;;25.06;100.00
78198;BME280;67472;51.554;7.812;2023-09-08T08:09:55;100862.00;;;25.12;100.00
78198;BME280;67472;51.554;7.812;2023-09-08T08:12:42;100860.31;;;25.43;100.00
78198;BME280;67472;51.554;7.812;2023-09-08T08:15:35;100848.19;;;25.58;100.00
78198;BME280;67472;51.554;7.812;2023-09-08T08:18:21;100843.81;;;25.82;100.00
78198;BME280;67472;51.554;7.812;2023-09-08T08:21:08;100841.69;;;25.84;98.56
78198;BME280;67472;51.554;7.812;2023-09-08T08:23:54;100841.69;;;25.84;96.53
78198;BME280;67472;51.554;7.812;2023-09-08T08:26:42;100857.09;;;26.08;97.55
78198;BME280;67472;51.554;7.812;2023-09-08T08:29:29;100842.09;;;26.30;94.95
78198;BME280;67472;51.554;7.812;2023-09-08T08:32:16;100854.81;;;26.48;93.26
78198;BME280;67472;51.554;7.812;2023-09-08T08:35:05;100834.94;;;26.54;89.02
78198;BME280;67472;51.554;7.812;2023-09-08T08:37:52;100837.84;;;26.89;89.51
78198;BME280;67472;51.554;7.812;2023-09-08T08:40:39;100836.56;;;26.91;89.12
78198;BME280;67472;51.554;7.812;2023-09-08T08:43:29;100841.13;;;26.61;91.02
78198;BME280;67472;51.554;7.812;2023-09-08T08:46:16;100842.41;;;27.07;90.34
78198;BME280;67472;51.554;7.812;2023-09-08T08:49:05;100845.72;;;27.20;88.43
78198;BME280;67472;51.554;7.812;2023-09-08T08:51:53;100835.72;;;27.21;85.72
78198;BME280;67472;51.554;7.812;2023-09-08T08:54:42;100838.41;;;27.09;86.84
78198;BME280;67472;51.554;7.812;2023-09-08T08:57:30;100840.97;;;27.34;87.74
78198;BME280;67472;51.554;7.812;2023-09-08T09:00:18;100837.25;;;27.81;85.51
78198;BME280;67472;51.554;7.812;2023-09-08T09:03:05;100839.13;;;27.69;84.85
78198;BME280;67472;51.554;7.812;2023-09-08T09:05:52;100825.91;;;27.96;83.26
78198;BME280;67472;51.554;7.812;2023-09-08T09:08:43;100832.75;;;27.98;83.91
78198;BME280;67472;51.554;7.812;2023-09-08T09:11:39;100826.50;;;27.98;82.01
78198;BME280;67472;51.554;7.812;2023-09-08T09:14:26;100824.88;;;28.20;81.58
78198;BME280;67472;51.554;7.812;2023-09-08T09:17:15;100812.56;;;28.29;80.17
78198;BME280;67472;51.554;7.812;2023-09-08T09:20:16;100813.69;;;28.45;79.52
78198;BME280;67472;51.554;7.812;2023-09-08T09:23:03;100814.94;;;28.26;78.11
78198;BME280;67472;51.554;7.812;2023-09-08T09:25:51;100811.41;;;28.65;78.15
78198;BME280;67472;51.554;7.812;2023-09-08T09:28:46;100818.38;;;28.73;76.92
78198;BME280;67472;51.554;7.812;2023-09-08T09:31:33;100823.06;;;28.37;77.55
78198;BME280;67472;51.554;7.812;2023-09-08T09:34:22;100808.94;;;28.64;75.87
78198;BME280;67472;51.554;7.812;2023-09-08T09:37:09;100789.66;;;28.93;71.97
78198;BME280;67472;51.554;7.812;2023-09-08T09:39:56;100786.34;;;29.20;70.08
78198;BME280;67472;51.554;7.812;2023-09-08T09:42:42;100782.38;;;29.44;67.97
78198;BME280;67472;51.554;7.812;2023-09-08T09:45:28;100776.59;;;29.74;66.64
78198;BME280;67472;51.554;7.812;2023-09-08T09:48:15;100770.25;;;29.85;65.12
78198;BME280;67472;51.554;7.812;2023-09-08T09:51:16;100768.38;;;30.29;65.72
78198;BME280;67472;51.554;7.812;2023-09-08T09:54:03;100749.50;;;30.44;62.88
78198;BME280;67472;51.554;7.812;2023-09-08T09:56:50;100757.78;;;30.54;62.49
78198;BME280;67472;51.554;7.812;2023-09-08T09:59:36;100739.28;;;30.56;60.36
78198;BME280;67472;51.554;7.812;2023-09-08T10:02:23;100758.16;;;31.16;61.78
78198;BME280;67472;51.554;7.812;2023-09-08T10:05:11;100750.47;;;30.86;59.79
78198;BME280;67472;51.554;7.812;2023-09-08T10:07:59;100735.09;;;31.02;58.20
78198;BME280;67472;51.554;7.812;2023-09-08T10:10:47;100743.78;;;31.25;59.71
78198;BME280;67472;51.554;7.812;2023-09-08T10:13:39;100734.28;;;31.01;58.32
78198;BME280;67472;51.554;7.812;2023-09-08T10:16:28;100714.97;;;31.08;54.90
78198;BME280;67472;51.554;7.812;2023-09-08T10:19:20;100703.19;;;31.39;53.80
78198;BME280;67472;51.554;7.812;2023-09-08T10:22:11;100723.34;;;31.33;54.65
78198;BME280;67472;51.554;7.812;2023-09-08T10:25:05;100713.13;;;31.55;52.93
78198;BME280;67472;51.554;7.812;2023-09-08T10:27:53;100719.06;;;31.47;52.86
78198;BME280;67472;51.554;7.812;2023-09-08T10:30:41;100733.44;;;31.69;54.12
78198;BME280;67472;51.554;7.812;2023-09-08T10:33:29;100728.56;;;31.81;53.29
78198;BME280;67472;51.554;7.812;2023-09-08T10:36:16;100720.97;;;31.88;52.77
78198;BME280;67472;51.554;7.812;2023-09-08T10:39:37;100722.47;;;32.11;51.06
78198;BME280;67472;51.554;7.812;2023-09-08T10:42:26;100711.41;;;31.91;51.06
78198;BME280;67472;51.554;7.812;2023-09-08T10:45:15;100718.69;;;31.70;51.42
78198;BME280;67472;51.554;7.812;2023-09-08T10:48:02;100717.69;;;31.45;51.30
78198;BME280;67472;51.554;7.812;2023-09-08T10:50:49;100711.81;;;31.63;49.97
78198;BME280;67472;51.554;7.812;2023-09-08T10:53:37;100722.63;;;31.89;49.44
78198;BME280;67472;51.554;7.812;2023-09-08T10:56:27;100728.22;;;32.10;49.60
78198;BME280;67472;51.554;7.812;2023-09-08T10:59:17;100725.50;;;32.25;49.78
78198;BME280;67472;51.554;7.812;2023-09-08T11:02:03;100719.59;;;32.53;48.68
78198;BME280;67472;51.554;7.812;2023-09-08T11:04:51;100715.53;;;32.56;47.87
78198;BME280;67472;51.554;7.812;2023-09-08T11:07:50;100706.97;;;32.42;46.63
78198;BME280;67472;51.554;7.812;2023-09-08T11:10:39;100724.72;;;32.24;47.73
78198;BME280;67472;51.554;7.812;2023-09-08T11:13:26;100722.63;;;32.57;47.46
78198;BME280;67472;51.554;7.812;2023-09-08T11:16:15;100732.00;;;32.91;47.37
78198;BME280;67472;51.554;7.812;2023-09-08T11:19:07;100733.09;;;33.05;47.02
78198;BME280;67472;51.554;7.812;2023-09-08T11:21:55;100759.13;;;33.13;46.08
78198;BME280;67472;51.554;7.812;2023-09-08T11:24:42;100746.25;;;33.13;44.82
78198;BME280;67472;51.554;7.812;2023-09-08T11:27:28;100753.06;;;33.41;45.94
78198;BME280;67472;51.554;7.812;2023-09-08T11:30:15;100749.81;;;33.34;44.61
78198;BME280;67472;51.554;7.812;2023-09-08T11:33:03;100743.75;;;33.47;44.14
78198;BME280;67472;51.554;7.812;2023-09-08T11:35:49;100734.72;;;33.36;43.27
78198;BME280;67472;51.554;7.812;2023-09-08T11:38:44;100744.31;;;33.49;44.19
78198;BME280;67472;51.554;7.812;2023-09-08T11:41:31;100727.91;;;33.34;43.50
78198;BME280;67472;51.554;7.812;2023-09-08T11:44:18;100735.53;;;33.62;43.67
78198;BME280;67472;51.554;7.812;2023-09-08T11:47:07;100732.53;;;33.38;43.61
78198;BME280;67472;51.554;7.812;2023-09-08T11:49:57;100731.72;;;33.58;44.74
78198;BME280;67472;51.554;7.812;2023-09-08T11:52:44;100719.31;;;33.76;42.93
78198;BME280;67472;51.554;7.812;2023-09-08T11:55:31;100741.56;;;33.64;44.03
78198;BME280;67472;51.554;7.812;2023-09-08T11:58:18;100733.19;;;34.15;44.57
78198;BME280;67472;51.554;7.812;2023-09-08T12:01:05;100712.25;;;33.54;41.94
78198;BME280;67472;51.554;7.812;2023-09-08T12:03:52;100719.59;;;33.79;42.99
78198;BME280;67472;51.554;7.812;2023-09-08T12:06:40;100724.72;;;34.16;41.42
78198;BME280;67472;51.554;7.812;2023-09-08T12:09:26;100728.06;;;33.88;42.71
78198;BME280;67472;51.554;7.812;2023-09-08T12:12:13;100725.56;;;34.01;42.39
78198;BME280;67472;51.554;7.812;2023-09-08T12:15:01;100721.13;;;34.16;41.91
78198;BME280;67472;51.554;7.812;2023-09-08T12:17:50;100717.66;;;33.85;42.94
78198;BME280;67472;51.554;7.812;2023-09-08T12:20:38;100718.69;;;34.04;43.33
78198;BME280;67472;51.554;7.812;2023-09-08T12:23:26;100724.97;;;34.15;43.66
78198;BME280;67472;51.554;7.812;2023-09-08T12:26:12;100728.47;;;34.30;44.69
78198;BME280;67472;51.554;7.812;2023-09-08T12:28:58;100726.63;;;34.05;43.58
78198;BME280;67472;51.554;7.812;2023-09-08T12:31:45;100717.28;;;34.22;42.46
78198;BME280;67472;51.554;7.812;2023-09-08T12:34:32;100704.03;;;33.60;42.66
78198;BME280;67472;51.554;7.812;2023-09-08T12:37:22;100710.59;;;33.59;43.52
78198;BME280;67472;51.554;7.812;2023-09-08T12:40:12;100713.78;;;34.01;44.87
78198;BME280;67472;51.554;7.812;2023-09-08T12:43:00;100704.78;;;34.44;43.56
78198;BME280;67472;51.554;7.812;2023-09-08T12:46:11;100699.44;;;34.68;42.59
78198;BME280;67472;51.554;7.812;2023-09-08T12:48:58;100694.38;;;34.80;42.90
78198;BME280;67472;51.554;7.812;2023-09-08T12:51:45;100684.81;;;34.34;42.17
78198;BME280;67472;51.554;7.812;2023-09-08T12:54:32;100689.69;;;33.88;42.67
78198;BME280;67472;51.554;7.812;2023-09-08T12:57:19;100689.84;;;33.07;44.42
78198;BME280;67472;51.554;7.812;2023-09-08T13:00:07;100699.91;;;33.47;44.73
78198;BME280;67472;51.554;7.812;2023-09-08T13:02:53;100700.16;;;33.71;44.02
78198;BME280;67472;51.554;7.812;2023-09-08T13:05:39;100697.09;;;33.92;44.08
78198;BME280;67472;51.554;7.812;2023-09-08T13:08:25;100673.72;;;34.10;42.67
78198;BME280;67472;51.554;7.812;2023-09-08T13:11:11;100675.56;;;34.20;42.34
78198;BME280;67472;51.554;7.812;2023-09-08T13:13:59;100680.63;;;33.92;42.50
78198;BME280;67472;51.554;7.812;2023-09-08T13:16:45;100679.88;;;33.72;42.97
78198;BME280;67472;51.554;7.812;2023-09-08T13:19:31;100679.81;;;33.92;43.26
78198;BME280;67472;51.554;7.812;2023-09-08T13:22:18;100678.75;;;34.42;43.73
78198;BME280;67472;51.554;7.812;2023-09-08T13:25:05;100671.94;;;34.73;41.43
78198;BME280;67472;51.554;7.812;2023-09-08T13:27:51;100667.50;;;34.82;41.43
78198;BME280;67472;51.554;7.812;2023-09-08T13:30:39;100654.47;;;34.93;39.89
78198;BME280;67472;51.554;7.812;2023-09-08T13:33:25;100637.91;;;35.03;37.57
78198;BME280;67472;51.554;7.812;2023-09-08T13:36:12;100652.09;;;35.15;38.68
78198;BME280;67472;51.554;7.812;2023-09-08T13:38:58;100640.56;;;33.96;38.96
78198;BME280;67472;51.554;7.812;2023-09-08T13:41:46;100660.09;;;33.85;40.70
78198;BME280;67472;51.554;7.812;2023-09-08T13:44:33;100649.25;;;34.19;40.53
78198;BME280;67472;51.554;7.812;2023-09-08T13:47:21;100661.19;;;33.84;41.71
78198;BME280;67472;51.554;7.812;2023-09-08T13:50:08;100641.25;;;34.22;39.45
78198;BME280;67472;51.554;7.812;2023-09-08T13:52:56;100637.22;;;34.15;38.61
78198;BME280;67472;51.554;7.812;2023-09-08T13:55:43;100643.81;;;34.08;39.25
78198;BME280;67472;51.554;7.812;2023-09-08T13:58:31;100646.75;;;34.27;39.55
78198;BME280;67472;51.554;7.812;2023-09-08T14:01:18;100647.03;;;34.65;39.28
78198;BME280;67472;51.554;7.812;2023-09-08T14:04:06;100637.59;;;34.42;38.61
78198;BME280;67472;51.554;7.812;2023-09-08T14:06:52;100632.41;;;34.35;38.32
78198;BME280;67472;51.554;7.812;2023-09-08T14:09:40;100636.75;;;34.41;37.43
78198;BME280;67472;51.554;7.812;2023-09-08T14:12:26;100641.13;;;34.47;38.37
78198;BME280;67472;51.554;7.812;2023-09-08T14:15:13;100621.56;;;34.54;36.73
78198;BME280;67472;51.554;7.812;2023-09-08T14:18:01;100643.50;;;34.54;38.71
78198;BME280;67472;51.554;7.812;2023-09-08T14:20:49;100634.47;;;34.53;37.60
78198;BME280;67472;51.554;7.812;2023-09-08T14:23:35;100636.16;;;34.49;38.09
78198;BME280;67472;51.554;7.812;2023-09-08T14:26:23;100640.50;;;34.55;38.06
78198;BME280;67472;51.554;7.812;2023-09-08T14:29:11;100631.66;;;34.63;37.91
78198;BME280;67472;51.554;7.812;2023-09-08T14:31:57;100641.25;;;34.66;39.44
78198;BME280;67472;51.554;7.812;2023-09-08T14:34:43;100626.25;;;34.15;38.30